Time,TemperatureF,DewpointF,PressureIn,WindDirection,WindDirectionDegrees,WindSpeedMPH,WindSpeedGustMPH,Humidity,HourlyPrecipIn,Conditions,Clouds,dailyrainin,SolarRadiationWatts/m^2,SoftwareType,DateUTC
2013-09-28 00:02:00,57.0,57.0,-100.00,SSW,193,13.0,25.0,100,0.03,,,0.36,0.000000,,2013-09-28 07:02:00,
2013-09-28 00:42:00,59.0,59.0,-100.00,SSW,194,12.0,25.0,100,0.01,,,0.37,0.000000,,2013-09-28 07:42:00,
2013-09-28 00:52:00,59.0,59.0,-100.00,SSW,194,12.0,25.0,100,0.01,,,0.37,0.000000,,2013-09-28 07:52:00,
2013-09-28 01:02:00,59.0,59.0,-100.00,SSW,194,12.0,25.0,100,0.01,,,0.37,0.000000,,2013-09-28 08:02:00,
2013-09-28 01:43:00,59.0,59.0,-100.00,SSW,193,14.0,28.0,100,0.01,,,0.38,0.000000,,2013-09-28 08:43:00,
2013-09-28 01:53:00,59.0,59.0,-100.00,SSW,193,14.0,28.0,100,0.01,,,0.38,0.000000,,2013-09-28 08:53:00,
2013-09-28 02:01:00,59.0,59.0,-100.00,SSW,193,14.0,28.0,100,0.01,,,0.38,0.000000,,2013-09-28 09:01:00,
2013-09-28 02:43:00,58.0,58.0,-100.00,SSW,193,14.0,24.0,100,0.00,,,0.38,0.000000,,2013-09-28 09:43:00,
2013-09-28 02:54:00,58.0,58.0,-100.00,SSW,193,14.0,24.0,100,0.00,,,0.38,0.000000,,2013-09-28 09:54:00,
2013-09-28 03:03:00,58.0,58.0,-100.00,SSW,193,14.0,24.0,100,0.00,,,0.38,0.000000,,2013-09-28 10:03:00,
2013-09-28 03:43:00,60.0,60.0,-100.00,South,191,15.0,28.0,100,0.01,,,0.39,0.000000,,2013-09-28 10:43:00,
2013-09-28 03:52:00,60.0,60.0,-100.00,South,191,15.0,28.0,100,0.01,,,0.39,0.000000,,2013-09-28 10:52:00,
2013-09-28 04:02:00,60.0,60.0,-100.00,South,191,15.0,28.0,100,0.01,,,0.39,0.000000,,2013-09-28 11:02:00,
2013-09-28 04:43:00,60.0,60.0,-100.00,SSW,195,15.0,28.0,100,0.06,,,0.45,0.000000,,2013-09-28 11:43:00,
2013-09-28 04:52:00,60.0,60.0,-100.00,SSW,195,15.0,28.0,100,0.06,,,0.45,0.000000,,2013-09-28 11:52:00,
2013-09-28 05:01:00,60.0,60.0,-100.00,SSW,195,15.0,28.0,100,0.06,,,0.45,0.000000,,2013-09-28 12:01:00,
2013-09-28 05:42:00,58.0,58.0,-100.00,SSW,196,16.0,29.0,100,0.03,,,0.48,1.000000,,2013-09-28 12:42:00,
2013-09-28 05:52:00,58.0,58.0,-100.00,SSW,196,16.0,29.0,100,0.03,,,0.48,1.000000,,2013-09-28 12:52:00,
2013-09-28 06:02:00,58.0,58.0,-100.00,SSW,196,16.0,29.0,100,0.03,,,0.48,1.000000,,2013-09-28 13:02:00,
2013-09-28 06:42:00,58.0,58.0,-100.00,SSW,194,17.0,32.0,100,0.05,,,0.53,0.000000,,2013-09-28 13:42:00,
2013-09-28 06:52:00,58.0,58.0,-100.00,SSW,194,17.0,32.0,100,0.05,,,0.53,0.000000,,2013-09-28 13:52:00,
2013-09-28 07:02:00,58.0,58.0,-100.00,SSW,194,17.0,32.0,100,0.05,,,0.53,0.000000,,2013-09-28 14:02:00,
2013-09-28 07:42:00,58.0,58.0,-100.00,SSW,195,19.0,31.0,100,0.03,,,0.56,1.000000,,2013-09-28 14:42:00,
2013-09-28 07:52:00,58.0,58.0,-100.00,SSW,195,19.0,31.0,100,0.03,,,0.56,1.000000,,2013-09-28 14:52:00,
2013-09-28 08:02:00,58.0,58.0,-100.00,SSW,195,19.0,31.0,100,0.03,,,0.56,1.000000,,2013-09-28 15:02:00,
2013-09-28 08:04:00,58.0,58.0,-100.00,South,190,19.0,35.0,100,0.01,,,0.57,6.000000,,2013-09-28 15:04:00,
2013-09-28 08:44:00,58.0,58.0,-100.00,South,190,19.0,35.0,100,0.01,,,0.57,6.000000,,2013-09-28 15:44:00,
2013-09-28 08:54:00,58.0,58.0,-100.00,South,190,19.0,35.0,100,0.01,,,0.57,6.000000,,2013-09-28 15:54:00,
2013-09-28 09:43:00,58.0,58.0,-100.00,SSW,195,19.0,35.0,100,0.00,,,0.57,22.000000,,2013-09-28 16:43:00,
2013-09-28 09:54:00,58.0,58.0,-100.00,SSW,195,19.0,35.0,100,0.00,,,0.57,22.000000,,2013-09-28 16:54:00,
2013-09-28 10:03:00,58.0,58.0,-100.00,SSW,195,19.0,35.0,100,0.00,,,0.57,22.000000,,2013-09-28 17:03:00,
2013-09-28 10:43:00,58.0,58.0,-100.00,SSW,192,19.0,32.0,100,0.01,,,0.58,47.000000,,2013-09-28 17:43:00,
2013-09-28 10:52:00,58.0,58.0,-100.00,SSW,192,19.0,32.0,100,0.01,,,0.58,47.000000,,2013-09-28 17:52:00,
2013-09-28 11:02:00,58.0,58.0,-100.00,SSW,192,19.0,32.0,100,0.01,,,0.58,47.000000,,2013-09-28 18:02:00,
2013-09-28 11:42:00,59.0,59.0,-100.00,SSW,194,20.0,37.0,100,0.00,,,0.58,82.000000,,2013-09-28 18:42:00,
2013-09-28 11:52:00,59.0,59.0,-100.00,SSW,194,20.0,37.0,100,0.00,,,0.58,82.000000,,2013-09-28 18:52:00,
2013-09-28 12:02:00,59.0,59.0,-100.00,SSW,194,20.0,37.0,100,0.00,,,0.58,82.000000,,2013-09-28 19:02:00,
2013-09-28 12:42:00,60.0,60.0,-100.00,SSW,198,17.0,34.0,100,0.00,,,0.58,112.000000,,2013-09-28 19:42:00,
2013-09-28 12:52:00,60.0,60.0,-100.00,SSW,198,17.0,34.0,100,0.00,,,0.58,112.000000,,2013-09-28 19:52:00,
2013-09-28 13:02:00,60.0,60.0,-100.00,SSW,198,17.0,34.0,100,0.00,,,0.58,112.000000,,2013-09-28 20:02:00,
2013-09-28 13:43:00,59.0,59.0,-100.00,SSW,195,18.0,36.0,100,0.02,,,0.58,137.000000,,2013-09-28 20:43:00,
2013-09-28 13:52:00,59.0,59.0,-100.00,SSW,195,18.0,36.0,100,0.02,,,0.58,137.000000,,2013-09-28 20:52:00,
2013-09-28 14:02:00,59.0,59.0,-100.00,SSW,195,18.0,36.0,100,0.02,,,0.58,137.000000,,2013-09-28 21:02:00,
2013-09-28 14:04:00,59.0,59.0,-100.00,South,191,20.0,36.0,100,0.02,,,0.55,137.000000,,2013-09-28 21:04:00,
2013-09-28 14:44:00,59.0,59.0,-100.00,South,191,20.0,36.0,100,0.02,,,0.55,137.000000,,2013-09-28 21:44:00,
2013-09-28 14:55:00,59.0,59.0,-100.00,South,191,20.0,36.0,100,0.02,,,0.55,137.000000,,2013-09-28 21:55:00,
2013-09-28 15:43:00,61.0,61.0,-100.00,South,188,21.0,41.0,100,0.01,,,0.45,120.000000,,2013-09-28 22:43:00,
2013-09-28 15:54:00,61.0,61.0,-100.00,South,188,21.0,41.0,100,0.01,,,0.45,120.000000,,2013-09-28 22:54:00,
2013-09-28 16:03:00,61.0,61.0,-100.00,South,188,21.0,41.0,100,0.01,,,0.45,120.000000,,2013-09-28 23:03:00,
2013-09-28 16:22:00,59.0,59.0,-100.00,SSW,192,22.0,43.0,100,0.05,,,0.41,44.000000,,2013-09-28 23:22:00,
2013-09-28 16:34:00,59.0,59.0,-100.00,SSW,192,22.0,43.0,100,0.05,,,0.41,44.000000,,2013-09-28 23:34:00,
2013-09-28 16:43:00,59.0,59.0,-100.00,SSW,192,22.0,43.0,100,0.05,,,0.41,44.000000,,2013-09-28 23:43:00,
2013-09-28 16:52:00,59.0,59.0,-100.00,SSW,192,22.0,43.0,100,0.05,,,0.41,44.000000,,2013-09-28 23:52:00,
2013-09-28 17:01:00,59.0,59.0,-100.00,SSW,192,22.0,43.0,100,0.05,,,0.41,44.000000,,2013-09-29 00:01:00,
2013-09-28 17:43:00,61.0,61.0,-100.00,SSW,194,23.0,45.0,100,0.02,,,0.40,34.000000,,2013-09-29 00:43:00,
2013-09-28 17:52:00,61.0,61.0,-100.00,SSW,194,23.0,45.0,100,0.02,,,0.40,34.000000,,2013-09-29 00:52:00,
2013-09-28 18:02:00,61.0,61.0,-100.00,SSW,194,23.0,45.0,100,0.02,,,0.40,34.000000,,2013-09-29 01:02:00,
2013-09-28 18:43:00,59.0,59.0,-100.00,SSW,194,28.0,46.0,100,0.12,,,0.51,11.000000,,2013-09-29 01:43:00,
2013-09-28 18:52:00,59.0,59.0,-100.00,SSW,194,28.0,46.0,100,0.12,,,0.51,11.000000,,2013-09-29 01:52:00,
2013-09-28 19:03:00,59.0,59.0,-100.00,SSW,194,28.0,46.0,100,0.12,,,0.51,11.000000,,2013-09-29 02:03:00,
2013-09-28 19:43:00,54.0,54.0,-100.00,WSW,258,5.0,50.0,100,0.13,,,0.64,6.000000,,2013-09-29 02:43:00,
2013-09-28 19:53:00,54.0,54.0,-100.00,WSW,258,5.0,50.0,100,0.13,,,0.64,6.000000,,2013-09-29 02:53:00,
2013-09-28 20:03:00,54.0,54.0,-100.00,WSW,258,5.0,50.0,100,0.13,,,0.64,6.000000,,2013-09-29 03:03:00,
2013-09-28 20:44:00,54.0,54.0,-100.00,SSW,205,7.0,14.0,100,0.22,,,0.86,2.000000,,2013-09-29 03:44:00,
2013-09-28 20:55:00,54.0,54.0,-100.00,SSW,205,7.0,14.0,100,0.22,,,0.86,2.000000,,2013-09-29 03:55:00,
2013-09-28 21:02:00,-999.0,-99.9,-100.00,SSW,205,7.0,14.0,-999,-99.99,,,-99.99,2.000000,,2013-09-29 04:02:00,
2013-09-28 21:44:00,52.0,52.0,-100.00,SSW,205,9.0,19.0,100,0.33,,,1.18,1.000000,,2013-09-29 04:44:00,
2013-09-28 21:54:00,52.0,52.0,-100.00,SSW,205,9.0,19.0,100,0.33,,,1.18,1.000000,,2013-09-29 04:54:00,
2013-09-28 22:03:00,52.0,52.0,-100.00,SSW,205,9.0,19.0,100,0.33,,,1.18,1.000000,,2013-09-29 05:03:00,
2013-09-28 22:43:00,55.0,55.0,-100.00,South,191,9.0,17.0,100,0.05,,,1.22,2.000000,,2013-09-29 05:43:00,
2013-09-28 22:52:00,55.0,55.0,-100.00,South,191,9.0,17.0,100,0.05,,,1.22,2.000000,,2013-09-29 05:52:00,
2013-09-28 23:02:00,55.0,55.0,-100.00,South,191,9.0,17.0,100,0.05,,,1.22,2.000000,,2013-09-29 06:02:00,
2013-09-28 23:42:00,56.0,56.0,-100.00,South,189,11.0,17.0,100,0.00,,,1.19,3.000000,,2013-09-29 06:42:00,
2013-09-28 23:52:00,56.0,56.0,-100.00,South,189,11.0,17.0,100,0.00,,,1.19,3.000000,,2013-09-29 06:52:00,